sensor_id;sensor_type;location;lat;lon;timestamp;temperature;humidity
70421;SHT31;57848;51.938;15.520;2023-02-01T00:01:53;2.68;94.13
70421;SHT31;57848;51.938;15.520;2023-02-01T00:04:19;2.67;94.05
70421;SHT31;57848;51.938;15.520;2023-02-01T00:06:44;2.68;93.74
70421;SHT31;57848;51.938;15.520;2023-02-01T00:09:10;2.70;93.95
70421;SHT31;57848;51.938;15.520;2023-02-01T00:11:35;2.68;93.70
70421;SHT31;57848;51.938;15.520;2023-02-01T00:14:00;2.77;93.97
70421;SHT31;57848;51.938;15.520;2023-02-01T00:16:28;2.75;94.05
70421;SHT31;57848;51.938;15.520;2023-02-01T00:18:59;2.67;93.94
70421;SHT31;57848;51.938;15.520;2023-02-01T00:21:26;2.75;93.84
70421;SHT31;57848;51.938;15.520;2023-02-01T00:23:51;2.77;93.99
70421;SHT31;57848;51.938;15.520;2023-02-01T00:26:22;2.87;94.18
70421;SHT31;57848;51.938;15.520;2023-02-01T00:28:50;2.85;94.04
70421;SHT31;57848;51.938;15.520;2023-02-01T00:31:16;2.87;94.23
70421;SHT31;57848;51.938;15.520;2023-02-01T00:33:41;2.91;94.51
70421;SHT31;57848;51.938;15.520;2023-02-01T00:36:08;2.94;94.22
70421;SHT31;57848;51.938;15.520;2023-02-01T00:38:36;2.91;94.49
70421;SHT31;57848;51.938;15.520;2023-02-01T00:43:33;2.96;93.80
70421;SHT31;57848;51.938;15.520;2023-02-01T00:45:59;3.01;94.03
70421;SHT31;57848;51.938;15.520;2023-02-01T00:48:25;2.98;93.78
70421;SHT31;57848;51.938;15.520;2023-02-01T00:50:51;3.04;94.01
70421;SHT31;57848;51.938;15.520;2023-02-01T00:53:16;3.06;93.89
70421;SHT31;57848;51.938;15.520;2023-02-01T00:55:45;3.08;93.84
70421;SHT31;57848;51.938;15.520;2023-02-01T00:58:11;3.12;93.67
70421;SHT31;57848;51.938;15.520;2023-02-01T01:00:36;3.12;93.81
70421;SHT31;57848;51.938;15.520;2023-02-01T01:03:02;3.16;93.57
70421;SHT31;57848;51.938;15.520;2023-02-01T01:05:27;3.18;93.56
70421;SHT31;57848;51.938;15.520;2023-02-01T01:07:53;3.13;93.85
70421;SHT31;57848;51.938;15.520;2023-02-01T01:10:19;3.18;93.82
70421;SHT31;57848;51.938;15.520;2023-02-01T01:12:44;3.25;93.16
70421;SHT31;57848;51.938;15.520;2023-02-01T01:15:10;3.22;92.93
70421;SHT31;57848;51.938;15.520;2023-02-01T01:17:35;3.29;93.32
70421;SHT31;57848;51.938;15.520;2023-02-01T01:20:01;3.33;93.11
70421;SHT31;57848;51.938;15.520;2023-02-01T01:22:26;3.29;92.90
70421;SHT31;57848;51.938;15.520;2023-02-01T01:24:52;3.25;93.08
70421;SHT31;57848;51.938;15.520;2023-02-01T01:27:17;3.19;93.39
70421;SHT31;57848;51.938;15.520;2023-02-01T01:29:48;3.15;93.09
70421;SHT31;57848;51.938;15.520;2023-02-01T01:32:13;3.11;93.37
70421;SHT31;57848;51.938;15.520;2023-02-01T01:34:39;3.06;93.14
70421;SHT31;57848;51.938;15.520;2023-02-01T01:37:04;3.18;93.69
70421;SHT31;57848;51.938;15.520;2023-02-01T01:39:30;3.19;93.13
70421;SHT31;57848;51.938;15.520;2023-02-01T01:41:56;3.22;93.29
70421;SHT31;57848;51.938;15.520;2023-02-01T01:44:59;3.26;93.08
70421;SHT31;57848;51.938;15.520;2023-02-01T01:47:35;3.35;93.11
70421;SHT31;57848;51.938;15.520;2023-02-01T01:50:04;3.39;92.73
70421;SHT31;57848;51.938;15.520;2023-02-01T01:52:31;3.36;92.34
70421;SHT31;57848;51.938;15.520;2023-02-01T01:54:57;3.37;92.69
70421;SHT31;57848;51.938;15.520;2023-02-01T01:57:27;3.39;93.17
70421;SHT31;57848;51.938;15.520;2023-02-01T02:00:00;3.33;92.69
70421;SHT31;57848;51.938;15.520;2023-02-01T02:02:40;3.37;92.76
70421;SHT31;57848;51.938;15.520;2023-02-01T02:05:08;3.39;92.59
70421;SHT31;57848;51.938;15.520;2023-02-01T02:07:37;3.37;92.29
70421;SHT31;57848;51.938;15.520;2023-02-01T02:10:08;3.26;92.43
70421;SHT31;57848;51.938;15.520;2023-02-01T02:12:42;3.18;92.84
70421;SHT31;57848;51.938;15.520;2023-02-01T02:15:09;3.13;92.86
70421;SHT31;57848;51.938;15.520;2023-02-01T02:20:39;3.16;92.48
70421;SHT31;57848;51.938;15.520;2023-02-01T02:31:45;3.16;91.87
70421;SHT31;57848;51.938;15.520;2023-02-01T02:42:28;3.02;92.56
70421;SHT31;57848;51.938;15.520;2023-02-01T02:51:00;3.08;91.58
70421;SHT31;57848;51.938;15.520;2023-02-01T02:54:29;3.01;92.25
70421;SHT31;57848;51.938;15.520;2023-02-01T02:56:55;2.98;92.12
70421;SHT31;57848;51.938;15.520;2023-02-01T02:59:42;3.02;91.41
70421;SHT31;57848;51.938;15.520;2023-02-01T03:02:28;3.01;91.33
70421;SHT31;57848;51.938;15.520;2023-02-01T03:05:13;2.91;91.40
70421;SHT31;57848;51.938;15.520;2023-02-01T03:10:14;2.85;91.51
70421;SHT31;57848;51.938;15.520;2023-02-01T03:12:41;2.88;91.58
70421;SHT31;57848;51.938;15.520;2023-02-01T03:15:28;2.87;90.83
70421;SHT31;57848;51.938;15.520;2023-02-01T03:17:55;2.89;91.23
70421;SHT31;57848;51.938;15.520;2023-02-01T03:20:24;2.96;91.08
70421;SHT31;57848;51.938;15.520;2023-02-01T03:22:51;2.99;91.41
70421;SHT31;57848;51.938;15.520;2023-02-01T03:25:22;3.06;90.82
70421;SHT31;57848;51.938;15.520;2023-02-01T03:27:53;3.09;90.38
70421;SHT31;57848;51.938;15.520;2023-02-01T03:30:26;3.12;89.98
70421;SHT31;57848;51.938;15.520;2023-02-01T03:32:56;3.18;90.23
70421;SHT31;57848;51.938;15.520;2023-02-01T03:35:59;3.20;89.65
70421;SHT31;57848;51.938;15.520;2023-02-01T03:38:40;3.30;89.68
70421;SHT31;57848;51.938;15.520;2023-02-01T03:44:18;3.30;89.40
70421;SHT31;57848;51.938;15.520;2023-02-01T03:46:50;3.32;89.28
70421;SHT31;57848;51.938;15.520;2023-02-01T03:49:28;3.25;89.61
70421;SHT31;57848;51.938;15.520;2023-02-01T03:51:54;3.20;89.57
70421;SHT31;57848;51.938;15.520;2023-02-01T03:54:21;3.19;89.67
70421;SHT31;57848;51.938;15.520;2023-02-01T03:56:48;3.20;89.33
70421;SHT31;57848;51.938;15.520;2023-02-01T03:59:15;3.15;89.73
70421;SHT31;57848;51.938;15.520;2023-02-01T04:01:41;3.13;89.73
70421;SHT31;57848;51.938;15.520;2023-02-01T04:04:07;3.16;89.60
70421;SHT31;57848;51.938;15.520;2023-02-01T04:06:35;3.19;89.37
70421;SHT31;57848;51.938;15.520;2023-02-01T04:09:02;3.19;89.48
70421;SHT31;57848;51.938;15.520;2023-02-01T04:11:27;3.23;89.42
70421;SHT31;57848;51.938;15.520;2023-02-01T04:13:54;3.23;89.13
70421;SHT31;57848;51.938;15.520;2023-02-01T04:16:19;3.32;89.41
70421;SHT31;57848;51.938;15.520;2023-02-01T04:18:45;3.37;88.77
70421;SHT31;57848;51.938;15.520;2023-02-01T04:21:10;3.37;88.78
70421;SHT31;57848;51.938;15.520;2023-02-01T04:23:36;3.42;88.67
70421;SHT31;57848;51.938;15.520;2023-02-01T04:26:03;3.50;88.40
70421;SHT31;57848;51.938;15.520;2023-02-01T04:28:28;3.53;88.65
70421;SHT31;57848;51.938;15.520;2023-02-01T04:30:54;3.62;87.53
70421;SHT31;57848;51.938;15.520;2023-02-01T04:33:19;3.57;88.11
70421;SHT31;57848;51.938;15.520;2023-02-01T04:35:45;3.59;88.05
70421;SHT31;57848;51.938;15.520;2023-02-01T04:38:10;3.66;87.94
70421;SHT31;57848;51.938;15.520;2023-02-01T04:40:36;3.64;88.13
70421;SHT31;57848;51.938;15.520;2023-02-01T04:43:03;3.63;88.09
70421;SHT31;57848;51.938;15.520;2023-02-01T04:45:29;3.60;88.27
70421;SHT31;57848;51.938;15.520;2023-02-01T04:47:54;3.62;87.95
70421;SHT31;57848;51.938;15.520;2023-02-01T04:50:20;3.62;88.13
70421;SHT31;57848;51.938;15.520;2023-02-01T04:52:45;3.54;88.14
70421;SHT31;57848;51.938;15.520;2023-02-01T04:55:12;3.43;88.43
70421;SHT31;57848;51.938;15.520;2023-02-01T04:57:39;3.39;88.36
70421;SHT31;57848;51.938;15.520;2023-02-01T05:00:06;3.46;88.41
70421;SHT31;57848;51.938;15.520;2023-02-01T05:02:33;3.39;88.27
70421;SHT31;57848;51.938;15.520;2023-02-01T05:04:58;3.43;88.30
70421;SHT31;57848;51.938;15.520;2023-02-01T05:07:23;3.47;88.16
70421;SHT31;57848;51.938;15.520;2023-02-01T05:09:49;3.53;88.26
70421;SHT31;57848;51.938;15.520;2023-02-01T05:12:14;3.60;87.90
70421;SHT31;57848;51.938;15.520;2023-02-01T05:14:58;3.64;87.79
70421;SHT31;57848;51.938;15.520;2023-02-01T05:17:24;3.67;87.86
70421;SHT31;57848;51.938;15.520;2023-02-01T05:19:49;3.78;87.91
70421;SHT31;57848;51.938;15.520;2023-02-01T05:22:14;3.78;87.19
70421;SHT31;57848;51.938;15.520;2023-02-01T05:24:40;3.75;87.51
70421;SHT31;57848;51.938;15.520;2023-02-01T05:27:05;3.77;87.19
70421;SHT31;57848;51.938;15.520;2023-02-01T05:29:30;3.77;87.03
70421;SHT31;57848;51.938;15.520;2023-02-01T05:31:56;3.83;86.84
70421;SHT31;57848;51.938;15.520;2023-02-01T05:34:21;3.88;86.56
70421;SHT31;57848;51.938;15.520;2023-02-01T05:36:47;3.91;86.75
70421;SHT31;57848;51.938;15.520;2023-02-01T05:39:12;3.90;86.92
70421;SHT31;57848;51.938;15.520;2023-02-01T05:41:37;3.94;86.91
70421;SHT31;57848;51.938;15.520;2023-02-01T05:44:03;3.87;86.99
70421;SHT31;57848;51.938;15.520;2023-02-01T05:46:28;3.94;86.59
70421;SHT31;57848;51.938;15.520;2023-02-01T05:48:54;3.91;86.02
70421;SHT31;57848;51.938;15.520;2023-02-01T05:51:19;3.93;86.11
70421;SHT31;57848;51.938;15.520;2023-02-01T05:53:45;3.98;86.39
70421;SHT31;57848;51.938;15.520;2023-02-01T05:56:10;3.93;86.17
70421;SHT31;57848;51.938;15.520;2023-02-01T05:58:36;3.85;86.31
70421;SHT31;57848;51.938;15.520;2023-02-01T06:01:02;3.90;86.17
70421;SHT31;57848;51.938;15.520;2023-02-01T06:03:28;3.84;86.16
70421;SHT31;57848;51.938;15.520;2023-02-01T06:05:54;3.90;86.10
70421;SHT31;57848;51.938;15.520;2023-02-01T06:08:19;3.90;85.93
70421;SHT31;57848;51.938;15.520;2023-02-01T06:10:45;3.88;85.78
70421;SHT31;57848;51.938;15.520;2023-02-01T06:13:10;3.90;85.71
70421;SHT31;57848;51.938;15.520;2023-02-01T06:15:35;3.98;85.37
70421;SHT31;57848;51.938;15.520;2023-02-01T06:18:03;3.97;85.22
70421;SHT31;57848;51.938;15.520;2023-02-01T06:20:29;3.98;85.32
70421;SHT31;57848;51.938;15.520;2023-02-01T06:22:55;3.98;85.20
70421;SHT31;57848;51.938;15.520;2023-02-01T06:25:20;3.88;85.61
70421;SHT31;57848;51.938;15.520;2023-02-01T06:27:47;3.93;85.55
70421;SHT31;57848;51.938;15.520;2023-02-01T06:30:13;3.90;85.86
70421;SHT31;57848;51.938;15.520;2023-02-01T06:32:40;3.95;85.19
70421;SHT31;57848;51.938;15.520;2023-02-01T06:35:10;4.02;84.64
70421;SHT31;57848;51.938;15.520;2023-02-01T06:37:42;4.02;84.52
70421;SHT31;57848;51.938;15.520;2023-02-01T06:40:08;4.06;84.04
70421;SHT31;57848;51.938;15.520;2023-02-01T06:42:34;4.08;84.10
70421;SHT31;57848;51.938;15.520;2023-02-01T06:44:59;4.08;84.08
70421;SHT31;57848;51.938;15.520;2023-02-01T06:47:25;4.08;84.29
70421;SHT31;57848;51.938;15.520;2023-02-01T06:49:50;4.14;84.60
70421;SHT31;57848;51.938;15.520;2023-02-01T06:52:15;4.12;84.48
70421;SHT31;57848;51.938;15.520;2023-02-01T06:54:41;4.19;84.07
70421;SHT31;57848;51.938;15.520;2023-02-01T06:57:06;4.18;84.60
70421;SHT31;57848;51.938;15.520;2023-02-01T06:59:32;4.16;84.77
70421;SHT31;57848;51.938;15.520;2023-02-01T07:01:57;4.19;84.26
70421;SHT31;57848;51.938;15.520;2023-02-01T07:04:22;4.26;84.03
70421;SHT31;57848;51.938;15.520;2023-02-01T07:06:48;4.29;84.33
70421;SHT31;57848;51.938;15.520;2023-02-01T07:09:13;4.31;84.19
70421;SHT31;57848;51.938;15.520;2023-02-01T07:11:39;4.34;83.94
70421;SHT31;57848;51.938;15.520;2023-02-01T07:14:12;4.31;84.62
70421;SHT31;57848;51.938;15.520;2023-02-01T07:16:37;4.36;84.01
70421;SHT31;57848;51.938;15.520;2023-02-01T07:19:03;4.42;83.68
70421;SHT31;57848;51.938;15.520;2023-02-01T07:21:28;4.39;84.02
70421;SHT31;57848;51.938;15.520;2023-02-01T07:23:54;4.42;83.85
70421;SHT31;57848;51.938;15.520;2023-02-01T07:26:21;4.42;83.78
70421;SHT31;57848;51.938;15.520;2023-02-01T07:28:47;4.45;84.07
70421;SHT31;57848;51.938;15.520;2023-02-01T07:31:14;4.48;83.70
70421;SHT31;57848;51.938;15.520;2023-02-01T07:33:41;4.45;84.03
70421;SHT31;57848;51.938;15.520;2023-02-01T07:36:10;4.38;85.80
70421;SHT31;57848;51.938;15.520;2023-02-01T07:38:36;4.29;87.14
70421;SHT31;57848;51.938;15.520;2023-02-01T07:41:03;4.18;87.51
70421;SHT31;57848;51.938;15.520;2023-02-01T07:43:29;4.16;88.16
70421;SHT31;57848;51.938;15.520;2023-02-01T07:45:55;4.16;88.72
70421;SHT31;57848;51.938;15.520;2023-02-01T07:48:21;4.04;88.24
70421;SHT31;57848;51.938;15.520;2023-02-01T07:50:47;4.05;88.74
70421;SHT31;57848;51.938;15.520;2023-02-01T07:53:13;3.95;89.01
70421;SHT31;57848;51.938;15.520;2023-02-01T07:55:39;4.02;89.21
70421;SHT31;57848;51.938;15.520;2023-02-01T07:58:05;3.93;89.71
70421;SHT31;57848;51.938;15.520;2023-02-01T08:00:30;4.01;89.96
70421;SHT31;57848;51.938;15.520;2023-02-01T08:03:14;3.98;89.79
70421;SHT31;57848;51.938;15.520;2023-02-01T08:05:40;3.97;89.70
70421;SHT31;57848;51.938;15.520;2023-02-01T08:08:05;3.99;89.77
70421;SHT31;57848;51.938;15.520;2023-02-01T08:10:31;3.97;89.68
70421;SHT31;57848;51.938;15.520;2023-02-01T08:12:59;3.95;89.64
70421;SHT31;57848;51.938;15.520;2023-02-01T08:15:26;4.01;89.50
70421;SHT31;57848;51.938;15.520;2023-02-01T08:17:52;3.99;89.16
70421;SHT31;57848;51.938;15.520;2023-02-01T08:20:20;4.01;89.17
70421;SHT31;57848;51.938;15.520;2023-02-01T08:22:49;4.12;89.09
70421;SHT31;57848;51.938;15.520;2023-02-01T08:25:15;4.18;88.70
70421;SHT31;57848;51.938;15.520;2023-02-01T08:27:41;4.09;88.67
70421;SHT31;57848;51.938;15.520;2023-02-01T08:30:07;4.22;88.64
70421;SHT31;57848;51.938;15.520;2023-02-01T08:32:33;4.16;88.32
70421;SHT31;57848;51.938;15.520;2023-02-01T08:34:58;4.25;88.76
70421;SHT31;57848;51.938;15.520;2023-02-01T08:37:24;4.24;89.13
70421;SHT31;57848;51.938;15.520;2023-02-01T08:39:49;4.31;88.54
70421;SHT31;57848;51.938;15.520;2023-02-01T08:42:16;4.32;88.25
70421;SHT31;57848;51.938;15.520;2023-02-01T08:45:01;4.34;88.35
70421;SHT31;57848;51.938;15.520;2023-02-01T08:47:27;4.38;87.82
70421;SHT31;57848;51.938;15.520;2023-02-01T08:49:53;4.34;88.25
70421;SHT31;57848;51.938;15.520;2023-02-01T08:52:19;4.34;87.68
70421;SHT31;57848;51.938;15.520;2023-02-01T08:54:44;4.38;88.04
70421;SHT31;57848;51.938;15.520;2023-02-01T08:57:10;4.45;87.94
70421;SHT31;57848;51.938;15.520;2023-02-01T08:59:35;4.45;88.70
70421;SHT31;57848;51.938;15.520;2023-02-01T09:02:01;4.43;88.19
70421;SHT31;57848;51.938;15.520;2023-02-01T09:04:26;4.39;88.56
70421;SHT31;57848;51.938;15.520;2023-02-01T09:06:52;4.41;88.53
70421;SHT31;57848;51.938;15.520;2023-02-01T09:09:23;4.46;88.22
70421;SHT31;57848;51.938;15.520;2023-02-01T09:11:49;4.43;88.21
70421;SHT31;57848;51.938;15.520;2023-02-01T09:14:16;4.43;87.77
70421;SHT31;57848;51.938;15.520;2023-02-01T09:16:41;4.48;87.94
70421;SHT31;57848;51.938;15.520;2023-02-01T09:19:06;4.48;87.78
70421;SHT31;57848;51.938;15.520;2023-02-01T09:21:32;4.46;87.59
70421;SHT31;57848;51.938;15.520;2023-02-01T09:23:57;4.55;87.46
70421;SHT31;57848;51.938;15.520;2023-02-01T09:26:23;4.65;87.33
70421;SHT31;57848;51.938;15.520;2023-02-01T09:28:48;4.65;87.27
70421;SHT31;57848;51.938;15.520;2023-02-01T09:31:15;4.79;87.26
70421;SHT31;57848;51.938;15.520;2023-02-01T09:33:40;4.72;86.21
70421;SHT31;57848;51.938;15.520;2023-02-01T09:36:06;4.72;86.39
70421;SHT31;57848;51.938;15.520;2023-02-01T09:38:32;4.72;86.24
70421;SHT31;57848;51.938;15.520;2023-02-01T09:40:58;4.72;86.70
70421;SHT31;57848;51.938;15.520;2023-02-01T09:43:40;4.66;87.61
70421;SHT31;57848;51.938;15.520;2023-02-01T09:46:31;4.57;88.05
70421;SHT31;57848;51.938;15.520;2023-02-01T09:49:02;4.48;89.90
70421;SHT31;57848;51.938;15.520;2023-02-01T09:51:44;4.24;91.17
70421;SHT31;57848;51.938;15.520;2023-02-01T09:54:19;4.14;92.26
70421;SHT31;57848;51.938;15.520;2023-02-01T09:59:34;3.88;92.98
70421;SHT31;57848;51.938;15.520;2023-02-01T10:02:08;3.80;94.87
70421;SHT31;57848;51.938;15.520;2023-02-01T10:04:36;3.78;93.45
70421;SHT31;57848;51.938;15.520;2023-02-01T10:07:09;3.70;94.07
70421;SHT31;57848;51.938;15.520;2023-02-01T10:09:59;3.74;94.75
70421;SHT31;57848;51.938;15.520;2023-02-01T10:12:52;3.71;94.32
70421;SHT31;57848;51.938;15.520;2023-02-01T10:18:17;3.71;94.35
70421;SHT31;57848;51.938;15.520;2023-02-01T10:23:45;3.69;94.32
70421;SHT31;57848;51.938;15.520;2023-02-01T10:26:21;3.74;94.55
70421;SHT31;57848;51.938;15.520;2023-02-01T10:28:58;3.74;93.99
70421;SHT31;57848;51.938;15.520;2023-02-01T10:31:30;3.69;94.76
70421;SHT31;57848;51.938;15.520;2023-02-01T10:33:58;3.67;94.66
70421;SHT31;57848;51.938;15.520;2023-02-01T10:37:10;3.57;94.87
70421;SHT31;57848;51.938;15.520;2023-02-01T10:39:22;3.66;94.60
70421;SHT31;57848;51.938;15.520;2023-02-01T10:41:48;3.69;94.73
70421;SHT31;57848;51.938;15.520;2023-02-01T10:44:20;3.66;94.79
70421;SHT31;57848;51.938;15.520;2023-02-01T10:46:48;3.73;94.90
70421;SHT31;57848;51.938;15.520;2023-02-01T10:49:18;3.75;94.85
70421;SHT31;57848;51.938;15.520;2023-02-01T10:51:51;3.71;94.38
70421;SHT31;57848;51.938;15.520;2023-02-01T10:54:20;3.71;94.90
70421;SHT31;57848;51.938;15.520;2023-02-01T10:56:46;3.78;95.13
70421;SHT31;57848;51.938;15.520;2023-02-01T10:59:23;3.70;94.54
70421;SHT31;57848;51.938;15.520;2023-02-01T11:01:49;3.74;94.51
70421;SHT31;57848;51.938;15.520;2023-02-01T11:04:19;3.70;94.67
70421;SHT31;57848;51.938;15.520;2023-02-01T11:06:54;3.74;95.09
70421;SHT31;57848;51.938;15.520;2023-02-01T11:09:30;3.70;94.83
70421;SHT31;57848;51.938;15.520;2023-02-01T11:11:58;3.69;94.50
70421;SHT31;57848;51.938;15.520;2023-02-01T11:16:53;3.64;94.94
70421;SHT31;57848;51.938;15.520;2023-02-01T11:19:18;3.60;94.83
70421;SHT31;57848;51.938;15.520;2023-02-01T11:21:48;3.63;94.79
70421;SHT31;57848;51.938;15.520;2023-02-01T11:24:27;3.60;95.17
70421;SHT31;57848;51.938;15.520;2023-02-01T11:26:55;3.64;94.86
70421;SHT31;57848;51.938;15.520;2023-02-01T11:29:21;3.67;94.49
70421;SHT31;57848;51.938;15.520;2023-02-01T11:31:56;3.67;94.65
70421;SHT31;57848;51.938;15.520;2023-02-01T11:34:25;3.67;94.81
70421;SHT31;57848;51.938;15.520;2023-02-01T11:36:53;3.70;94.44
70421;SHT31;57848;51.938;15.520;2023-02-01T11:39:33;3.80;94.25
70421;SHT31;57848;51.938;15.520;2023-02-01T11:42:13;3.70;94.16
70421;SHT31;57848;51.938;15.520;2023-02-01T11:44:43;3.74;94.61
70421;SHT31;57848;51.938;15.520;2023-02-01T11:49:47;3.99;94.22
70421;SHT31;57848;51.938;15.520;2023-02-01T11:52:18;4.11;93.56
70421;SHT31;57848;51.938;15.520;2023-02-01T11:55:02;4.16;93.41
70421;SHT31;57848;51.938;15.520;2023-02-01T11:57:43;4.15;93.44
70421;SHT31;57848;51.938;15.520;2023-02-01T12:06:15;4.12;93.12
70421;SHT31;57848;51.938;15.520;2023-02-01T12:11:44;4.24;93.10
70421;SHT31;57848;51.938;15.520;2023-02-01T12:14:27;4.42;93.06
70421;SHT31;57848;51.938;15.520;2023-02-01T12:17:07;4.45;92.91
70421;SHT31;57848;51.938;15.520;2023-02-01T12:25:34;4.42;92.96
70421;SHT31;57848;51.938;15.520;2023-02-01T12:35:57;4.43;92.57
70421;SHT31;57848;51.938;15.520;2023-02-01T12:38:42;4.46;92.62
70421;SHT31;57848;51.938;15.520;2023-02-01T12:43:58;4.42;92.35
70421;SHT31;57848;51.938;15.520;2023-02-01T12:46:30;4.36;92.75
70421;SHT31;57848;51.938;15.520;2023-02-01T12:49:08;4.36;92.50
70421;SHT31;57848;51.938;15.520;2023-02-01T12:51:38;4.39;92.44
70421;SHT31;57848;51.938;15.520;2023-02-01T12:56:53;4.34;92.33
70421;SHT31;57848;51.938;15.520;2023-02-01T12:59:27;4.41;92.33
70421;SHT31;57848;51.938;15.520;2023-02-01T13:02:04;4.46;92.36
70421;SHT31;57848;51.938;15.520;2023-02-01T13:04:56;4.49;92.15
70421;SHT31;57848;51.938;15.520;2023-02-01T13:07:29;4.43;91.74
70421;SHT31;57848;51.938;15.520;2023-02-01T13:10:05;4.41;91.64
70421;SHT31;57848;51.938;15.520;2023-02-01T13:12:42;4.42;92.10
70421;SHT31;57848;51.938;15.520;2023-02-01T13:15:16;4.42;91.87
70421;SHT31;57848;51.938;15.520;2023-02-01T13:17:44;4.60;91.29
70421;SHT31;57848;51.938;15.520;2023-02-01T13:20:32;4.65;90.76
70421;SHT31;57848;51.938;15.520;2023-02-01T13:23:08;4.74;91.16
70421;SHT31;57848;51.938;15.520;2023-02-01T13:25:39;4.80;90.75
70421;SHT31;57848;51.938;15.520;2023-02-01T13:28:14;4.88;90.55
70421;SHT31;57848;51.938;15.520;2023-02-01T13:31:00;4.90;90.68
70421;SHT31;57848;51.938;15.520;2023-02-01T13:36:14;5.08;89.79
70421;SHT31;57848;51.938;15.520;2023-02-01T13:41:25;5.30;89.55
70421;SHT31;57848;51.938;15.520;2023-02-01T13:43:57;5.30;89.30
70421;SHT31;57848;51.938;15.520;2023-02-01T13:46:24;5.36;89.33
70421;SHT31;57848;51.938;15.520;2023-02-01T13:48:52;5.35;89.23
70421;SHT31;57848;51.938;15.520;2023-02-01T13:51:36;5.39;89.22
70421;SHT31;57848;51.938;15.520;2023-02-01T13:54:03;5.39;88.37
70421;SHT31;57848;51.938;15.520;2023-02-01T13:56:39;5.31;88.09
70421;SHT31;57848;51.938;15.520;2023-02-01T14:02:45;5.07;88.44
70421;SHT31;57848;51.938;15.520;2023-02-01T14:10:54;4.88;88.83
70421;SHT31;57848;51.938;15.520;2023-02-01T14:21:34;4.86;88.35
70421;SHT31;57848;51.938;15.520;2023-02-01T14:31:51;4.95;88.19
70421;SHT31;57848;51.938;15.520;2023-02-01T14:34:27;4.95;87.75
70421;SHT31;57848;51.938;15.520;2023-02-01T14:37:04;5.01;87.84
70421;SHT31;57848;51.938;15.520;2023-02-01T14:39:34;4.94;88.06
70421;SHT31;57848;51.938;15.520;2023-02-01T14:42:04;4.94;87.68
70421;SHT31;57848;51.938;15.520;2023-02-01T14:44:35;5.00;87.88
70421;SHT31;57848;51.938;15.520;2023-02-01T14:47:32;4.90;88.12
70421;SHT31;57848;51.938;15.520;2023-02-01T14:50:03;4.93;88.05
70421;SHT31;57848;51.938;15.520;2023-02-01T14:52:35;4.90;88.06
70421;SHT31;57848;51.938;15.520;2023-02-01T14:55:05;4.93;88.00
70421;SHT31;57848;51.938;15.520;2023-02-01T14:57:34;4.86;88.48
70421;SHT31;57848;51.938;15.520;2023-02-01T15:00:18;4.83;88.00
70421;SHT31;57848;51.938;15.520;2023-02-01T15:02:46;4.94;87.88
70421;SHT31;57848;51.938;15.520;2023-02-01T15:07:52;4.91;88.16
70421;SHT31;57848;51.938;15.520;2023-02-01T15:10:19;4.91;88.35
70421;SHT31;57848;51.938;15.520;2023-02-01T15:12:45;4.83;88.65
70421;SHT31;57848;51.938;15.520;2023-02-01T15:15:22;4.90;88.69
70421;SHT31;57848;51.938;15.520;2023-02-01T15:17:56;4.94;88.22
70421;SHT31;57848;51.938;15.520;2023-02-01T15:20:32;4.90;88.59
70421;SHT31;57848;51.938;15.520;2023-02-01T15:23:03;4.87;89.18
70421;SHT31;57848;51.938;15.520;2023-02-01T15:25:31;4.83;89.74
70421;SHT31;57848;51.938;15.520;2023-02-01T15:27:57;4.67;89.84
70421;SHT31;57848;51.938;15.520;2023-02-01T15:30:28;4.73;91.18
70421;SHT31;57848;51.938;15.520;2023-02-01T15:38:42;3.74;91.73
70421;SHT31;57848;51.938;15.520;2023-02-01T15:41:19;3.36;92.18
70421;SHT31;57848;51.938;15.520;2023-02-01T15:49:01;2.96;93.28
70421;SHT31;57848;51.938;15.520;2023-02-01T15:51:29;2.91;93.58
70421;SHT31;57848;51.938;15.520;2023-02-01T15:53:59;2.92;93.43
70421;SHT31;57848;51.938;15.520;2023-02-01T15:56:37;2.89;93.37
70421;SHT31;57848;51.938;15.520;2023-02-01T15:59:20;2.89;93.90
70421;SHT31;57848;51.938;15.520;2023-02-01T16:01:46;2.83;94.01
70421;SHT31;57848;51.938;15.520;2023-02-01T16:04:24;2.81;93.90
70421;SHT31;57848;51.938;15.520;2023-02-01T16:06:53;2.94;94.11
70421;SHT31;57848;51.938;15.520;2023-02-01T16:09:22;2.94;94.24
70421;SHT31;57848;51.938;15.520;2023-02-01T16:11:57;2.95;94.28
70421;SHT31;57848;51.938;15.520;2023-02-01T16:14:24;2.99;94.36
70421;SHT31;57848;51.938;15.520;2023-02-01T16:16:50;3.11;94.54
70421;SHT31;57848;51.938;15.520;2023-02-01T16:19:16;3.19;94.45
70421;SHT31;57848;51.938;15.520;2023-02-01T16:21:42;3.23;94.51
70421;SHT31;57848;51.938;15.520;2023-02-01T16:24:07;3.35;94.49
70421;SHT31;57848;51.938;15.520;2023-02-01T16:26:33;3.43;93.98
70421;SHT31;57848;51.938;15.520;2023-02-01T16:28:59;3.46;94.26
70421;SHT31;57848;51.938;15.520;2023-02-01T16:31:34;3.43;94.73
70421;SHT31;57848;51.938;15.520;2023-02-01T16:34:00;3.60;94.00
70421;SHT31;57848;51.938;15.520;2023-02-01T16:36:26;3.71;93.33
70421;SHT31;57848;51.938;15.520;2023-02-01T16:38:53;3.71;93.46
70421;SHT31;57848;51.938;15.520;2023-02-01T16:41:20;3.75;93.42
70421;SHT31;57848;51.938;15.520;2023-02-01T16:43:49;3.88;93.45
70421;SHT31;57848;51.938;15.520;2023-02-01T16:46:18;3.90;93.24
70421;SHT31;57848;51.938;15.520;2023-02-01T16:48:50;3.93;92.86
70421;SHT31;57848;51.938;15.520;2023-02-01T16:51:16;4.04;92.61
70421;SHT31;57848;51.938;15.520;2023-02-01T16:53:43;4.02;92.92
70421;SHT31;57848;51.938;15.520;2023-02-01T16:56:20;4.08;93.60
70421;SHT31;57848;51.938;15.520;2023-02-01T16:58:47;3.95;94.14
70421;SHT31;57848;51.938;15.520;2023-02-01T17:01:15;3.90;94.21
70421;SHT31;57848;51.938;15.520;2023-02-01T17:03:41;3.85;95.05
70421;SHT31;57848;51.938;15.520;2023-02-01T17:06:10;3.78;94.75
70421;SHT31;57848;51.938;15.520;2023-02-01T17:08:38;3.81;93.92
70421;SHT31;57848;51.938;15.520;2023-02-01T17:11:05;3.77;94.65
70421;SHT31;57848;51.938;15.520;2023-02-01T17:13:31;3.87;94.58
70421;SHT31;57848;51.938;15.520;2023-02-01T17:16:03;3.77;93.81
70421;SHT31;57848;51.938;15.520;2023-02-01T17:18:32;3.80;94.08
70421;SHT31;57848;51.938;15.520;2023-02-01T17:20:59;3.78;94.94
70421;SHT31;57848;51.938;15.520;2023-02-01T17:23:26;3.78;94.51
70421;SHT31;57848;51.938;15.520;2023-02-01T17:25:53;3.73;94.49
70421;SHT31;57848;51.938;15.520;2023-02-01T17:28:19;3.78;95.06
70421;SHT31;57848;51.938;15.520;2023-02-01T17:30:44;3.73;94.65
70421;SHT31;57848;51.938;15.520;2023-02-01T17:35:47;3.69;94.51
70421;SHT31;57848;51.938;15.520;2023-02-01T17:38:13;3.70;94.87
70421;SHT31;57848;51.938;15.520;2023-02-01T17:40:39;3.63;94.70
70421;SHT31;57848;51.938;15.520;2023-02-01T17:43:05;3.54;94.92
70421;SHT31;57848;51.938;15.520;2023-02-01T17:45:34;3.54;95.12
70421;SHT31;57848;51.938;15.520;2023-02-01T17:48:04;3.53;95.15